createdAt,value
2018-06-25T00:00:10.529Z,7.45
2018-06-25T00:00:22.970Z,7.45
2018-06-25T00:00:35.416Z,7.45
2018-06-25T00:00:47.856Z,7.45
2018-06-25T00:01:00.470Z,7.45
2018-06-25T00:01:13.090Z,7.45
2018-06-25T00:01:25.565Z,7.45
2018-06-25T00:01:38.002Z,7.45
2018-06-25T00:01:50.441Z,7.45
2018-06-25T00:02:02.876Z,7.45
2018-06-25T00:02:15.361Z,7.45
2018-06-25T00:02:27.757Z,7.45
2018-06-25T00:02:40.192Z,7.45
2018-06-25T00:02:52.607Z,7.45
2018-06-25T00:03:05.014Z,7.45
2018-06-25T00:03:17.423Z,7.45
2018-06-25T00:03:29.842Z,7.45
2018-06-25T00:03:42.247Z,7.45
2018-06-25T00:03:54.651Z,7.45
2018-06-25T00:04:07.059Z,7.45
2018-06-25T00:04:19.450Z,7.45
2018-06-25T00:04:31.875Z,7.45
2018-06-25T00:04:44.276Z,7.45
2018-06-25T00:04:56.664Z,7.45
2018-06-25T00:05:09.101Z,7.45
2018-06-25T00:05:21.515Z,7.45
2018-06-25T00:05:33.984Z,7.45
2018-06-25T00:05:46.391Z,7.45
2018-06-25T00:05:58.795Z,7
2018-06-25T00:06:11.214Z,7
2018-06-25T00:06:23.622Z,7
2018-06-25T00:06:36.031Z,7
2018-06-25T00:06:48.452Z,7
2018-06-25T00:07:00.850Z,7
2018-06-25T00:07:13.248Z,7
2018-06-25T00:07:25.708Z,7
2018-06-25T00:07:38.105Z,7
2018-06-25T00:07:50.696Z,7
2018-06-25T00:08:03.075Z,7
2018-06-25T00:08:15.494Z,7
2018-06-25T00:08:27.903Z,7
2018-06-25T00:08:40.297Z,7
2018-06-25T00:08:52.702Z,7
2018-06-25T00:09:05.113Z,7
2018-06-25T00:09:17.548Z,7
2018-06-25T00:09:30.047Z,7
2018-06-25T00:09:42.503Z,7
2018-06-25T00:09:54.948Z,7
2018-06-25T00:10:07.366Z,7
2018-06-25T00:10:19.808Z,7
2018-06-25T00:10:32.213Z,7
2018-06-25T00:10:44.605Z,7
2018-06-25T00:10:57.010Z,7
2018-06-25T00:11:09.407Z,7
2018-06-25T00:11:21.834Z,7
2018-06-25T00:11:34.250Z,7
2018-06-25T00:11:46.650Z,7
2018-06-25T00:11:59.080Z,7
2018-06-25T00:12:11.501Z,7
2018-06-25T00:12:23.947Z,7
2018-06-25T00:12:36.359Z,7
2018-06-25T00:12:48.766Z,7
2018-06-25T00:13:01.168Z,7
2018-06-25T00:13:13.574Z,7
2018-06-25T00:13:25.980Z,7
2018-06-25T00:13:38.434Z,7
2018-06-25T00:13:50.815Z,7
2018-06-25T00:14:03.211Z,7
2018-06-25T00:14:15.610Z,7
2018-06-25T00:14:28.022Z,7
2018-06-25T00:14:40.425Z,7
2018-06-25T00:14:52.840Z,7
2018-06-25T00:15:05.251Z,7
2018-06-25T00:15:17.644Z,7
2018-06-25T00:15:30.040Z,7
2018-06-25T00:15:42.455Z,7
2018-06-25T00:15:54.876Z,7.29
2018-06-25T00:16:07.296Z,7.29
2018-06-25T00:16:19.702Z,7.29
2018-06-25T00:16:32.091Z,7.29
2018-06-25T00:16:44.490Z,7.29
2018-06-25T00:16:56.893Z,7.29
2018-06-25T00:17:09.290Z,7.29
2018-06-25T00:17:21.840Z,7.29
2018-06-25T00:17:34.239Z,7.29
2018-06-25T00:17:46.710Z,7.29
2018-06-25T00:17:59.104Z,7.29
2018-06-25T00:18:11.524Z,7.29
2018-06-25T00:18:23.934Z,7.29
2018-06-25T00:18:36.337Z,7.29
2018-06-25T00:18:48.741Z,7.29
2018-06-25T00:19:01.159Z,7.29
2018-06-25T00:19:13.581Z,7.29
2018-06-25T00:19:25.979Z,7.29
2018-06-25T00:19:38.407Z,7.29
2018-06-25T00:19:50.841Z,7.29
2018-06-25T00:20:03.319Z,7.29
2018-06-25T00:20:15.726Z,7.29
2018-06-25T00:20:28.142Z,7.29
2018-06-25T00:20:40.717Z,7.29
2018-06-25T00:20:53.127Z,7.29
2018-06-25T00:21:05.532Z,7.29
2018-06-25T00:21:17.988Z,7.29
2018-06-25T00:21:30.374Z,7.29
2018-06-25T00:21:42.770Z,7.29
2018-06-25T00:21:55.165Z,7.29
2018-06-25T00:22:07.559Z,7.29
2018-06-25T00:22:19.952Z,7.29
2018-06-25T00:22:32.362Z,7.29
2018-06-25T00:22:44.786Z,7.29
2018-06-25T00:22:57.199Z,7.29
2018-06-25T00:23:09.593Z,7.29
2018-06-25T00:23:21.999Z,7.29
2018-06-25T00:23:34.410Z,7.29
2018-06-25T00:23:46.818Z,7.29
2018-06-25T00:23:59.232Z,7.29
2018-06-25T00:24:11.638Z,7.29
2018-06-25T00:24:24.034Z,7.29
2018-06-25T00:24:36.447Z,7.29
2018-06-25T00:24:48.873Z,7.29
2018-06-25T00:25:01.281Z,7.29
2018-06-25T00:25:13.718Z,7.29
2018-06-25T00:25:26.140Z,7.29
2018-06-25T00:25:38.733Z,7.29
2018-06-25T00:25:51.164Z,7.55
2018-06-25T00:26:03.566Z,7.55
2018-06-25T00:26:15.973Z,7.55
2018-06-25T00:26:28.378Z,7.55
2018-06-25T00:26:40.783Z,7.55
2018-06-25T00:26:53.329Z,7.55
2018-06-25T00:27:05.753Z,7.55
2018-06-25T00:27:18.179Z,7.55
2018-06-25T00:27:30.582Z,7.55
2018-06-25T00:27:43.039Z,7.55
2018-06-25T00:27:55.434Z,7.55
2018-06-25T00:28:07.842Z,7.55
2018-06-25T00:28:20.261Z,7.55
2018-06-25T00:28:32.674Z,7.55
2018-06-25T00:28:45.085Z,7.55
2018-06-25T00:28:57.480Z,7.55
2018-06-25T00:29:09.879Z,7.55
2018-06-25T00:29:22.344Z,7.55
2018-06-25T00:29:34.746Z,7.55
2018-06-25T00:29:47.166Z,7.55
2018-06-25T00:29:59.581Z,7.55
2018-06-25T00:30:12.016Z,7.55
2018-06-25T00:30:24.420Z,7.55
2018-06-25T00:30:36.824Z,7.55
2018-06-25T00:30:49.277Z,7.55
2018-06-25T00:31:01.679Z,7.55
2018-06-25T00:31:14.134Z,7.55
2018-06-25T00:31:26.562Z,7.55
2018-06-25T00:31:38.974Z,7.55
2018-06-25T00:31:51.419Z,7.55
2018-06-25T00:32:03.825Z,7.55
2018-06-25T00:32:16.233Z,7.55
2018-06-25T00:32:28.638Z,7.55
2018-06-25T00:32:41.038Z,7.55
2018-06-25T00:32:53.746Z,7.55
2018-06-25T00:33:06.168Z,7.55
2018-06-25T00:33:18.580Z,7.55
2018-06-25T00:33:30.985Z,7.55
2018-06-25T00:33:43.400Z,7.55
2018-06-25T00:33:55.803Z,7.55
2018-06-25T00:34:08.207Z,7.55
2018-06-25T00:34:20.613Z,7.55
2018-06-25T00:34:32.997Z,7.55
2018-06-25T00:34:45.429Z,7.55
2018-06-25T00:34:57.828Z,7.55
2018-06-25T00:35:10.286Z,7.55
2018-06-25T00:35:22.725Z,7.55
2018-06-25T00:35:35.124Z,7.55
2018-06-25T00:35:47.532Z,7.55
2018-06-25T00:35:59.946Z,7.65
2018-06-25T00:36:12.345Z,7.65
2018-06-25T00:36:24.741Z,7.65
2018-06-25T00:36:37.142Z,7.65
2018-06-25T00:36:49.587Z,7.65
2018-06-25T00:37:01.983Z,7.65
2018-06-25T00:37:14.375Z,7.65
2018-06-25T00:37:26.799Z,7.65
2018-06-25T00:37:39.230Z,7.65
2018-06-25T00:37:51.626Z,7.65
2018-06-25T00:38:04.025Z,7.65
2018-06-25T00:38:16.427Z,7.65
2018-06-25T00:38:28.841Z,7.65
2018-06-25T00:38:41.246Z,7.65
2018-06-25T00:38:53.672Z,7.65
2018-06-25T00:39:06.097Z,7.65
2018-06-25T00:39:18.497Z,7.65
2018-06-25T00:39:30.904Z,7.65
2018-06-25T00:39:43.314Z,7.65
2018-06-25T00:39:55.729Z,7.65
2018-06-25T00:40:08.141Z,7.65
2018-06-25T00:40:20.548Z,7.65
2018-06-25T00:40:32.943Z,7.65
2018-06-25T00:40:45.364Z,7.65
2018-06-25T00:40:57.774Z,7.65
2018-06-25T00:41:10.179Z,7.65
2018-06-25T00:41:22.573Z,7.65
2018-06-25T00:41:34.979Z,7.65
2018-06-25T00:41:47.398Z,7.65
2018-06-25T00:41:59.808Z,7.65
2018-06-25T00:42:12.302Z,7.65
2018-06-25T00:42:24.713Z,7.65
2018-06-25T00:42:37.196Z,7.65
2018-06-25T00:42:49.586Z,7.65
2018-06-25T00:43:02.002Z,7.65
2018-06-25T00:43:14.415Z,7.65
2018-06-25T00:43:26.811Z,7.65
2018-06-25T00:43:39.206Z,7.65
2018-06-25T00:43:51.620Z,7.65
2018-06-25T00:44:04.021Z,7.65
2018-06-25T00:44:16.435Z,7.65
2018-06-25T00:44:28.978Z,7.65
2018-06-25T00:44:41.366Z,7.65
2018-06-25T00:44:53.755Z,7.65
2018-06-25T00:45:06.206Z,7.65
2018-06-25T00:45:18.608Z,7.65
2018-06-25T00:45:31.004Z,7.65
2018-06-25T00:45:43.424Z,7.65
2018-06-25T00:45:55.964Z,6.52
2018-06-25T00:46:08.380Z,6.52
2018-06-25T00:46:20.799Z,6.52
2018-06-25T00:46:33.204Z,6.52
2018-06-25T00:46:45.617Z,6.52
2018-06-25T00:46:58.029Z,6.52
2018-06-25T00:47:10.444Z,6.52
2018-06-25T00:47:22.856Z,6.52
2018-06-25T00:47:35.265Z,6.52
2018-06-25T00:47:47.830Z,6.52
2018-06-25T00:48:00.232Z,6.52
2018-06-25T00:48:12.659Z,6.52
2018-06-25T00:48:25.065Z,6.52
2018-06-25T00:48:37.562Z,6.52
2018-06-25T00:48:49.962Z,6.52
2018-06-25T00:49:02.364Z,6.52
2018-06-25T00:49:14.776Z,6.52
2018-06-25T00:49:27.171Z,6.52
2018-06-25T00:49:39.571Z,6.52
2018-06-25T00:49:51.976Z,6.52
2018-06-25T00:50:04.377Z,6.52
2018-06-25T00:50:17.175Z,6.52
2018-06-25T00:50:29.578Z,6.52
2018-06-25T00:50:42.007Z,6.52
2018-06-25T00:50:54.408Z,6.52
2018-06-25T00:51:06.828Z,6.52
2018-06-25T00:51:19.244Z,6.52
2018-06-25T00:51:31.641Z,6.52
2018-06-25T00:51:44.037Z,6.52
2018-06-25T00:51:56.431Z,6.52
2018-06-25T00:52:08.869Z,6.52
2018-06-25T00:52:21.271Z,6.52
2018-06-25T00:52:33.670Z,6.52
2018-06-25T00:52:46.071Z,6.52
2018-06-25T00:52:58.473Z,6.52
2018-06-25T00:53:10.869Z,6.52
2018-06-25T00:53:23.302Z,6.52
2018-06-25T00:53:35.758Z,6.52
2018-06-25T00:53:48.158Z,6.52
2018-06-25T00:54:00.557Z,6.52
2018-06-25T00:54:12.968Z,6.52
2018-06-25T00:54:25.360Z,6.52
2018-06-25T00:54:37.757Z,6.52
2018-06-25T00:54:50.176Z,6.52
2018-06-25T00:55:02.596Z,6.52
2018-06-25T00:55:15.069Z,6.52
2018-06-25T00:55:27.477Z,6.52
2018-06-25T00:55:39.867Z,6.52
2018-06-25T00:55:52.277Z,6.52
2018-06-25T00:56:04.684Z,7.25
2018-06-25T00:56:17.083Z,7.25
2018-06-25T00:56:29.490Z,7.25
2018-06-25T00:56:41.913Z,7.25
2018-06-25T00:56:54.329Z,7.25
2018-06-25T00:57:06.783Z,7.25
2018-06-25T00:57:19.191Z,7.25
2018-06-25T00:57:31.593Z,7.25
2018-06-25T00:57:43.986Z,7.25
2018-06-25T00:57:56.388Z,7.25
2018-06-25T00:58:08.830Z,7.25
2018-06-25T00:58:21.233Z,7.25
2018-06-25T00:58:33.634Z,7.25
2018-06-25T00:58:46.048Z,7.25
2018-06-25T00:58:58.463Z,7.25
2018-06-25T00:59:10.872Z,7.25
2018-06-25T00:59:23.285Z,7.25
2018-06-25T00:59:35.690Z,7.25
2018-06-25T00:59:48.081Z,7.25
2018-06-25T01:00:00.487Z,7.25
2018-06-25T01:00:12.943Z,7.25
2018-06-25T01:00:25.391Z,7.25
2018-06-25T01:00:37.815Z,7.25
2018-06-25T01:00:50.261Z,7.25
2018-06-25T01:01:02.823Z,7.25
2018-06-25T01:01:15.355Z,7.25
2018-06-25T01:01:27.755Z,7.25
2018-06-25T01:01:40.173Z,7.25
2018-06-25T01:01:52.595Z,7.25
2018-06-25T01:02:04.998Z,7.25
2018-06-25T01:02:17.404Z,7.25
2018-06-25T01:02:29.826Z,7.25
2018-06-25T01:02:42.283Z,7.25
2018-06-25T01:02:54.737Z,7.25
2018-06-25T01:03:07.155Z,7.25
2018-06-25T01:03:19.547Z,7.25
2018-06-25T01:03:31.964Z,7.25
2018-06-25T01:03:44.380Z,7.25
2018-06-25T01:03:56.843Z,7.25
2018-06-25T01:04:09.253Z,7.25
2018-06-25T01:04:21.660Z,7.25
2018-06-25T01:04:34.062Z,7.25
2018-06-25T01:04:46.458Z,7.25
2018-06-25T01:04:58.891Z,7.25
2018-06-25T01:05:11.311Z,7.25
2018-06-25T01:05:23.763Z,7.25
2018-06-25T01:05:36.150Z,7.25
2018-06-25T01:05:48.561Z,7.25
2018-06-25T01:06:01.389Z,8.38
2018-06-25T01:06:14.423Z,8.38
2018-06-25T01:06:26.828Z,8.38
2018-06-25T01:06:39.223Z,8.38
2018-06-25T01:06:51.648Z,8.38
2018-06-25T01:07:04.075Z,8.38
2018-06-25T01:07:16.500Z,8.38
2018-06-25T01:07:28.943Z,8.38
2018-06-25T01:07:41.360Z,8.38
2018-06-25T01:07:53.913Z,8.38
2018-06-25T01:08:06.333Z,8.38
2018-06-25T01:08:18.727Z,8.38
2018-06-25T01:08:31.125Z,8.38
2018-06-25T01:08:43.532Z,8.38
2018-06-25T01:08:55.950Z,8.38
2018-06-25T01:09:08.367Z,8.38
2018-06-25T01:09:20.792Z,8.38
2018-06-25T01:09:33.214Z,8.38
2018-06-25T01:09:45.617Z,8.38
2018-06-25T01:09:58.024Z,8.38
2018-06-25T01:10:10.454Z,8.38
2018-06-25T01:10:22.855Z,8.38
2018-06-25T01:10:35.258Z,8.38
2018-06-25T01:10:47.656Z,8.38
2018-06-25T01:11:00.090Z,8.38
2018-06-25T01:11:12.509Z,8.38
2018-06-25T01:11:24.976Z,8.38
2018-06-25T01:11:37.386Z,8.38
2018-06-25T01:11:49.783Z,8.38
2018-06-25T01:12:02.186Z,8.38
2018-06-25T01:12:14.590Z,8.38
2018-06-25T01:12:26.991Z,8.38
2018-06-25T01:12:39.382Z,8.38
2018-06-25T01:12:51.806Z,8.38
2018-06-25T01:13:04.226Z,8.38
2018-06-25T01:13:16.625Z,8.38
2018-06-25T01:13:29.026Z,8.38
2018-06-25T01:13:41.438Z,8.38
2018-06-25T01:13:53.820Z,8.38
2018-06-25T01:14:06.222Z,8.38
2018-06-25T01:14:18.622Z,8.38
2018-06-25T01:14:31.007Z,8.38
2018-06-25T01:14:43.417Z,8.38
2018-06-25T01:14:55.830Z,8.38
2018-06-25T01:15:08.293Z,8.38
2018-06-25T01:15:20.781Z,8.38
2018-06-25T01:15:33.193Z,8.38
2018-06-25T01:15:45.609Z,8.38
2018-06-25T01:15:58.057Z,9.13
2018-06-25T01:16:10.454Z,9.13
2018-06-25T01:16:22.867Z,9.13
2018-06-25T01:16:35.268Z,9.13
2018-06-25T01:16:47.675Z,9.13
2018-06-25T01:17:00.092Z,9.13
2018-06-25T01:17:12.514Z,9.13
2018-06-25T01:17:24.978Z,9.13
2018-06-25T01:17:37.372Z,9.13
2018-06-25T01:17:49.789Z,9.13
2018-06-25T01:18:02.212Z,9.13
2018-06-25T01:18:14.628Z,9.13
2018-06-25T01:18:27.069Z,9.13
2018-06-25T01:18:39.465Z,9.13
2018-06-25T01:18:51.871Z,9.13
2018-06-25T01:19:04.279Z,9.13
2018-06-25T01:19:16.756Z,9.13
2018-06-25T01:19:29.218Z,9.13
2018-06-25T01:19:41.626Z,9.13
2018-06-25T01:19:54.032Z,9.13
2018-06-25T01:20:06.443Z,9.13
2018-06-25T01:20:18.845Z,9.13
2018-06-25T01:20:31.510Z,9.13
2018-06-25T01:20:43.912Z,9.13
2018-06-25T01:20:56.321Z,9.13
2018-06-25T01:21:08.721Z,9.13
2018-06-25T01:21:21.121Z,9.13
2018-06-25T01:21:33.540Z,9.13
2018-06-25T01:21:45.948Z,9.13
2018-06-25T01:21:58.365Z,9.13
2018-06-25T01:22:10.783Z,9.13
2018-06-25T01:22:23.262Z,9.13
2018-06-25T01:22:35.672Z,9.13
2018-06-25T01:22:48.072Z,9.13
2018-06-25T01:23:00.519Z,9.13
2018-06-25T01:23:12.922Z,9.13
2018-06-25T01:23:25.319Z,9.13
2018-06-25T01:23:37.729Z,9.13
2018-06-25T01:23:50.134Z,9.13
2018-06-25T01:24:02.551Z,9.13
2018-06-25T01:24:14.959Z,9.13
2018-06-25T01:24:27.348Z,9.13
2018-06-25T01:24:39.802Z,9.13
2018-06-25T01:24:52.207Z,9.13
2018-06-25T01:25:04.615Z,9.13
2018-06-25T01:25:17.127Z,9.13
2018-06-25T01:25:29.529Z,9.13
2018-06-25T01:25:41.949Z,9.13
2018-06-25T01:25:54.337Z,9.13
2018-06-25T01:26:06.743Z,9.36
2018-06-25T01:26:19.142Z,9.36
2018-06-25T01:26:31.537Z,9.36
2018-06-25T01:26:44.085Z,9.36
2018-06-25T01:26:56.506Z,9.36
2018-06-25T01:27:08.916Z,9.36
2018-06-25T01:27:21.369Z,9.36
2018-06-25T01:27:33.777Z,9.36
2018-06-25T01:27:46.178Z,9.36
2018-06-25T01:27:58.587Z,9.36
2018-06-25T01:28:10.989Z,9.36
2018-06-25T01:28:23.379Z,9.36
2018-06-25T01:28:35.763Z,9.36
2018-06-25T01:28:48.189Z,9.36
2018-06-25T01:29:00.580Z,9.36
2018-06-25T01:29:12.989Z,9.36
2018-06-25T01:29:25.401Z,9.36
2018-06-25T01:29:37.841Z,9.36
2018-06-25T01:29:50.262Z,9.36
2018-06-25T01:30:02.679Z,9.36
2018-06-25T01:30:15.088Z,9.36
2018-06-25T01:30:27.529Z,9.36
2018-06-25T01:30:39.922Z,9.36
2018-06-25T01:30:52.323Z,9.36
2018-06-25T01:31:04.705Z,9.36
2018-06-25T01:31:17.126Z,9.36
2018-06-25T01:31:29.513Z,9.36
2018-06-25T01:31:41.957Z,9.36
2018-06-25T01:31:54.364Z,9.36
2018-06-25T01:32:06.785Z,9.36
2018-06-25T01:32:19.198Z,9.36
2018-06-25T01:32:31.634Z,9.36
2018-06-25T01:32:44.077Z,9.36
2018-06-25T01:32:56.615Z,9.36
2018-06-25T01:33:09.010Z,9.36
2018-06-25T01:33:21.410Z,9.36
2018-06-25T01:33:33.857Z,9.36
2018-06-25T01:33:46.252Z,9.36
2018-06-25T01:33:58.656Z,9.36
2018-06-25T01:34:11.061Z,9.36
2018-06-25T01:34:23.457Z,9.36
2018-06-25T01:34:35.883Z,9.36
2018-06-25T01:34:48.339Z,9.36
2018-06-25T01:35:00.737Z,9.36
2018-06-25T01:35:13.146Z,9.36
2018-06-25T01:35:25.570Z,9.36
2018-06-25T01:35:37.966Z,9.36
2018-06-25T01:35:50.355Z,9.36
2018-06-25T01:36:02.757Z,9.77
2018-06-25T01:36:15.173Z,9.77
2018-06-25T01:36:27.574Z,9.77
2018-06-25T01:36:39.984Z,9.77
2018-06-25T01:36:52.382Z,9.77
2018-06-25T01:37:04.813Z,9.77
2018-06-25T01:37:17.234Z,9.77
2018-06-25T01:37:29.644Z,9.77
2018-06-25T01:37:42.046Z,9.77
2018-06-25T01:37:54.441Z,9.77
2018-06-25T01:38:06.902Z,9.77
2018-06-25T01:38:19.311Z,9.77
2018-06-25T01:38:31.744Z,9.77
2018-06-25T01:38:44.135Z,9.77
2018-06-25T01:38:56.531Z,9.77
2018-06-25T01:39:08.924Z,9.77
2018-06-25T01:39:21.325Z,9.77
2018-06-25T01:39:33.722Z,9.77
2018-06-25T01:39:46.121Z,9.77
2018-06-25T01:39:58.520Z,9.77
2018-06-25T01:40:10.934Z,9.77
2018-06-25T01:40:23.337Z,9.77
2018-06-25T01:40:35.788Z,9.77
2018-06-25T01:40:48.203Z,9.77
2018-06-25T01:41:00.608Z,9.77
2018-06-25T01:41:13.007Z,9.77
2018-06-25T01:41:25.419Z,9.77
2018-06-25T01:41:37.825Z,9.77
2018-06-25T01:41:50.455Z,9.77
2018-06-25T01:42:02.876Z,9.77
2018-06-25T01:42:15.309Z,9.77
2018-06-25T01:42:27.720Z,9.77
2018-06-25T01:42:40.273Z,9.77
2018-06-25T01:42:52.689Z,9.77
2018-06-25T01:43:05.112Z,9.77
2018-06-25T01:43:17.523Z,9.77
2018-06-25T01:43:29.932Z,9.77
2018-06-25T01:43:42.351Z,9.77
2018-06-25T01:43:54.750Z,9.77
2018-06-25T01:44:07.183Z,9.77
2018-06-25T01:44:19.645Z,9.77
2018-06-25T01:44:32.292Z,9.77
2018-06-25T01:44:44.679Z,9.77
2018-06-25T01:44:57.094Z,9.77
2018-06-25T01:45:09.575Z,9.77
2018-06-25T01:45:22.006Z,9.77
2018-06-25T01:45:34.411Z,9.77
2018-06-25T01:45:46.830Z,9.77
2018-06-25T01:45:59.482Z,9.79
2018-06-25T01:46:11.921Z,9.79
2018-06-25T01:46:24.355Z,9.79
2018-06-25T01:46:36.772Z,9.79
2018-06-25T01:46:49.179Z,9.79
2018-06-25T01:47:01.579Z,9.79
2018-06-25T01:47:14.012Z,9.79
2018-06-25T01:47:26.435Z,9.79
2018-06-25T01:47:38.854Z,9.79
2018-06-25T01:47:51.381Z,9.79
2018-06-25T01:48:03.795Z,9.79
2018-06-25T01:48:16.206Z,9.79
2018-06-25T01:48:28.634Z,9.79
2018-06-25T01:48:41.197Z,9.79
2018-06-25T01:48:53.604Z,9.79
2018-06-25T01:49:06.016Z,9.79
2018-06-25T01:49:18.504Z,9.79
2018-06-25T01:49:30.914Z,9.79
2018-06-25T01:49:43.321Z,9.79
2018-06-25T01:49:55.729Z,9.79
2018-06-25T01:50:08.140Z,9.79
2018-06-25T01:50:20.561Z,9.79
2018-06-25T01:50:32.998Z,9.79
2018-06-25T01:50:45.405Z,9.79
2018-06-25T01:50:57.951Z,9.79
2018-06-25T01:51:10.370Z,9.79
2018-06-25T01:51:22.795Z,9.79
2018-06-25T01:51:35.225Z,9.79
2018-06-25T01:51:47.625Z,9.79
2018-06-25T01:52:00.039Z,9.79
2018-06-25T01:52:12.526Z,9.79
2018-06-25T01:52:24.910Z,9.79
2018-06-25T01:52:37.337Z,9.79
2018-06-25T01:52:49.769Z,9.79
2018-06-25T01:53:02.166Z,9.79
2018-06-25T01:53:14.570Z,9.79
2018-06-25T01:53:26.991Z,9.79
2018-06-25T01:53:39.419Z,9.79
2018-06-25T01:53:51.835Z,9.79
2018-06-25T01:54:04.225Z,9.79
2018-06-25T01:54:16.671Z,9.79
2018-06-25T01:54:29.085Z,9.79
2018-06-25T01:54:41.493Z,9.79
2018-06-25T01:54:53.955Z,9.79
2018-06-25T01:55:06.361Z,9.79
2018-06-25T01:55:18.762Z,9.79
2018-06-25T01:55:31.192Z,9.79
2018-06-25T01:55:43.601Z,9.79
2018-06-25T01:55:55.992Z,9.79
2018-06-25T01:56:08.446Z,9.54
2018-06-25T01:56:20.853Z,9.54
2018-06-25T01:56:33.257Z,9.54
2018-06-25T01:56:45.672Z,9.54
2018-06-25T01:56:58.099Z,9.54
2018-06-25T01:57:10.512Z,9.54
2018-06-25T01:57:22.940Z,9.54
2018-06-25T01:57:35.324Z,9.54
2018-06-25T01:57:47.728Z,9.54
2018-06-25T01:58:00.141Z,9.54
2018-06-25T01:58:12.536Z,9.54
2018-06-25T01:58:24.997Z,9.54
2018-06-25T01:58:37.459Z,9.54
2018-06-25T01:58:49.869Z,9.54
2018-06-25T01:59:02.325Z,9.54
2018-06-25T01:59:14.743Z,9.54
2018-06-25T01:59:27.145Z,9.54
2018-06-25T01:59:39.567Z,9.54
2018-06-25T01:59:51.992Z,9.54
2018-06-25T02:00:04.450Z,9.54
2018-06-25T02:00:16.913Z,9.54
2018-06-25T02:00:29.348Z,9.54
2018-06-25T02:00:41.784Z,9.54
2018-06-25T02:00:54.371Z,9.54
2018-06-25T02:01:06.842Z,9.54
2018-06-25T02:01:19.478Z,9.54
2018-06-25T02:01:31.887Z,9.54
2018-06-25T02:01:44.300Z,9.54
2018-06-25T02:01:56.738Z,9.54
2018-06-25T02:02:09.152Z,9.54
2018-06-25T02:02:21.566Z,9.54
2018-06-25T02:02:33.989Z,9.54
2018-06-25T02:02:46.418Z,9.54
2018-06-25T02:02:58.819Z,9.54
2018-06-25T02:03:11.220Z,9.54
2018-06-25T02:03:23.625Z,9.54
2018-06-25T02:03:36.088Z,9.54
2018-06-25T02:03:48.510Z,9.54
2018-06-25T02:04:00.925Z,9.54
2018-06-25T02:04:13.347Z,9.54
2018-06-25T02:04:25.751Z,9.54
2018-06-25T02:04:38.178Z,9.54
2018-06-25T02:04:50.584Z,9.54
2018-06-25T02:05:02.980Z,9.54
2018-06-25T02:05:15.402Z,9.54
2018-06-25T02:05:27.866Z,9.54
2018-06-25T02:05:40.278Z,9.54
2018-06-25T02:05:52.697Z,9.54
2018-06-25T02:06:05.134Z,13.36
2018-06-25T02:06:17.609Z,13.36
2018-06-25T02:06:30.047Z,13.36
2018-06-25T02:06:42.444Z,13.36
2018-06-25T02:06:54.850Z,13.36
2018-06-25T02:07:07.257Z,13.36
2018-06-25T02:07:19.639Z,13.36
2018-06-25T02:07:32.033Z,13.36
2018-06-25T02:07:44.457Z,13.36
2018-06-25T02:07:56.922Z,13.36
2018-06-25T02:08:09.334Z,13.36
2018-06-25T02:08:21.737Z,13.36
2018-06-25T02:08:34.131Z,13.36
2018-06-25T02:08:46.519Z,13.36
2018-06-25T02:08:58.937Z,13.36
2018-06-25T02:09:11.347Z,13.36
2018-06-25T02:09:23.746Z,13.36
2018-06-25T02:09:36.134Z,13.36
2018-06-25T02:09:48.529Z,13.36
2018-06-25T02:10:00.923Z,13.36
2018-06-25T02:10:13.319Z,13.36
2018-06-25T02:10:25.725Z,13.36
2018-06-25T02:10:38.162Z,13.36
2018-06-25T02:10:50.568Z,13.36
2018-06-25T02:11:02.978Z,13.36
2018-06-25T02:11:15.386Z,13.36
2018-06-25T02:11:27.798Z,13.36
2018-06-25T02:11:40.243Z,13.36
2018-06-25T02:11:52.636Z,13.36
2018-06-25T02:12:05.029Z,13.36
2018-06-25T02:12:17.427Z,13.36
2018-06-25T02:12:29.818Z,13.36
2018-06-25T02:12:42.239Z,13.36
2018-06-25T02:12:54.713Z,13.36
2018-06-25T02:13:07.126Z,13.36
2018-06-25T02:13:19.536Z,13.36
2018-06-25T02:13:31.939Z,13.36
2018-06-25T02:13:44.350Z,13.36
2018-06-25T02:13:56.753Z,13.36
2018-06-25T02:14:09.142Z,13.36
2018-06-25T02:14:21.535Z,13.36
2018-06-25T02:14:33.955Z,13.36
2018-06-25T02:14:46.374Z,13.36
2018-06-25T02:14:58.782Z,13.36
2018-06-25T02:15:11.189Z,13.36
2018-06-25T02:15:23.576Z,13.36
2018-06-25T02:15:35.975Z,13.36
2018-06-25T02:15:48.390Z,13.36
2018-06-25T02:16:00.795Z,15.1
2018-06-25T02:16:13.209Z,15.1
2018-06-25T02:16:25.618Z,15.1
2018-06-25T02:16:38.078Z,15.1
2018-06-25T02:16:50.496Z,15.1
2018-06-25T02:17:02.907Z,15.1
2018-06-25T02:17:15.324Z,15.1
2018-06-25T02:17:27.708Z,15.1
2018-06-25T02:17:40.117Z,15.1
2018-06-25T02:17:52.568Z,15.1
2018-06-25T02:18:04.991Z,15.1
2018-06-25T02:18:17.397Z,15.1
2018-06-25T02:18:29.808Z,15.1
2018-06-25T02:18:42.262Z,15.1
2018-06-25T02:18:54.728Z,15.1
2018-06-25T02:19:07.142Z,15.1
2018-06-25T02:19:19.550Z,15.1
2018-06-25T02:19:31.946Z,15.1
2018-06-25T02:19:44.340Z,15.1
2018-06-25T02:19:56.813Z,15.1
2018-06-25T02:20:09.207Z,15.1
2018-06-25T02:20:21.612Z,15.1
2018-06-25T02:20:34.136Z,15.1
2018-06-25T02:20:46.532Z,15.1
2018-06-25T02:20:58.949Z,15.1
2018-06-25T02:21:11.361Z,15.1
2018-06-25T02:21:23.760Z,15.1
2018-06-25T02:21:36.189Z,15.1
2018-06-25T02:21:48.613Z,15.1
2018-06-25T02:22:00.995Z,15.1
2018-06-25T02:22:13.401Z,15.1
2018-06-25T02:22:25.792Z,15.1
2018-06-25T02:22:38.188Z,15.1
2018-06-25T02:22:50.593Z,15.1
2018-06-25T02:23:02.978Z,15.1
2018-06-25T02:23:15.382Z,15.1
2018-06-25T02:23:27.777Z,15.1
2018-06-25T02:23:40.171Z,15.1
2018-06-25T02:23:52.556Z,15.1
2018-06-25T02:24:04.950Z,15.1
2018-06-25T02:24:17.347Z,15.1
2018-06-25T02:24:29.753Z,15.1
2018-06-25T02:24:42.165Z,15.1
2018-06-25T02:24:54.559Z,15.1
2018-06-25T02:25:06.961Z,15.1
2018-06-25T02:25:19.342Z,15.1
2018-06-25T02:25:31.730Z,15.1
2018-06-25T02:25:44.169Z,15.1
2018-06-25T02:25:56.588Z,15.1
2018-06-25T02:26:08.989Z,17.41
2018-06-25T02:26:21.401Z,17.41
2018-06-25T02:26:34.021Z,17.41
2018-06-25T02:26:46.586Z,17.41
2018-06-25T02:26:58.988Z,17.41
2018-06-25T02:27:11.381Z,17.41
2018-06-25T02:27:23.773Z,17.41
2018-06-25T02:27:36.183Z,17.41
2018-06-25T02:27:48.584Z,17.41
2018-06-25T02:28:00.973Z,17.41
2018-06-25T02:28:13.378Z,17.41
2018-06-25T02:28:25.783Z,17.41
2018-06-25T02:28:38.213Z,17.41
2018-06-25T02:28:50.618Z,17.41
2018-06-25T02:29:03.029Z,17.41
2018-06-25T02:29:15.436Z,17.41
2018-06-25T02:29:27.864Z,17.41
2018-06-25T02:29:40.241Z,17.41
2018-06-25T02:29:52.644Z,17.41
2018-06-25T02:30:05.043Z,17.41
2018-06-25T02:30:17.445Z,17.41
2018-06-25T02:30:29.872Z,17.41
2018-06-25T02:30:42.283Z,17.41
2018-06-25T02:30:54.712Z,17.41
2018-06-25T02:31:07.141Z,17.41
2018-06-25T02:31:19.549Z,17.41
2018-06-25T02:31:31.965Z,17.41
2018-06-25T02:31:44.516Z,17.41
2018-06-25T02:31:56.924Z,17.41
2018-06-25T02:32:09.346Z,17.41
2018-06-25T02:32:21.765Z,17.41
2018-06-25T02:32:34.179Z,17.41
2018-06-25T02:32:46.587Z,17.41
2018-06-25T02:32:59.572Z,17.41
2018-06-25T02:33:12.651Z,17.41
2018-06-25T02:33:25.069Z,17.41
2018-06-25T02:33:37.476Z,17.41
2018-06-25T02:33:49.910Z,17.41
2018-06-25T02:34:02.333Z,17.41
2018-06-25T02:34:14.785Z,17.41
2018-06-25T02:34:27.205Z,17.41
2018-06-25T02:34:39.641Z,17.41
2018-06-25T02:34:52.060Z,17.41
2018-06-25T02:35:04.513Z,17.41
2018-06-25T02:35:16.934Z,17.41
2018-06-25T02:35:29.344Z,17.41
2018-06-25T02:35:41.793Z,17.41
2018-06-25T02:35:54.193Z,17.41
2018-06-25T02:36:06.652Z,14.19
2018-06-25T02:36:19.158Z,14.19
2018-06-25T02:36:31.629Z,14.19
2018-06-25T02:36:44.060Z,14.19
2018-06-25T02:36:56.546Z,14.19
2018-06-25T02:37:08.999Z,14.19
2018-06-25T02:37:21.411Z,14.19
2018-06-25T02:37:33.834Z,14.19
2018-06-25T02:37:46.258Z,14.19
2018-06-25T02:37:58.659Z,14.19
2018-06-25T02:38:11.095Z,14.19
2018-06-25T02:38:23.548Z,14.19
2018-06-25T02:38:36.570Z,14.19
2018-06-25T02:38:49.938Z,14.19
2018-06-25T02:39:02.392Z,14.19
2018-06-25T02:39:14.842Z,14.19
2018-06-25T02:39:27.340Z,14.19
2018-06-25T02:39:39.787Z,14.19
2018-06-25T02:39:52.212Z,14.19
2018-06-25T02:40:04.646Z,14.19
2018-06-25T02:40:17.045Z,14.19
2018-06-25T02:40:29.505Z,14.19
2018-06-25T02:40:41.920Z,14.19
2018-06-25T02:40:54.319Z,14.19
2018-06-25T02:41:06.759Z,14.19
2018-06-25T02:41:19.167Z,14.19
2018-06-25T02:41:31.588Z,14.19
2018-06-25T02:41:43.991Z,14.19
2018-06-25T02:41:56.433Z,14.19
2018-06-25T02:42:08.873Z,14.19
2018-06-25T02:42:21.319Z,14.19
2018-06-25T02:42:33.733Z,14.19
2018-06-25T02:42:46.171Z,14.19
2018-06-25T02:42:58.591Z,14.19
2018-06-25T02:43:11.030Z,14.19
2018-06-25T02:43:23.674Z,14.19
2018-06-25T02:43:36.109Z,14.19
2018-06-25T02:43:48.547Z,14.19
2018-06-25T02:44:00.947Z,14.19
2018-06-25T02:44:13.421Z,14.19
2018-06-25T02:44:25.855Z,14.19
2018-06-25T02:44:38.432Z,14.19
2018-06-25T02:44:50.839Z,14.19
2018-06-25T02:45:03.298Z,14.19
2018-06-25T02:45:15.740Z,14.19
2018-06-25T02:45:28.180Z,14.19